createdAt,value
2019-01-27T00:00:11.007Z,4.50
2019-01-27T00:01:11.009Z,4.70
2019-01-27T00:02:10.981Z,4.40
2019-01-27T00:03:10.696Z,4.30
2019-01-27T00:04:10.963Z,4.30
2019-01-27T00:05:10.931Z,4.30
2019-01-27T00:06:10.949Z,3.90
2019-01-27T00:07:10.659Z,4.40
2019-01-27T00:08:13.671Z,4.00
2019-01-27T00:09:10.916Z,4.50
2019-01-27T00:10:10.908Z,4.50
2019-01-27T00:11:10.899Z,4.60
2019-01-27T00:12:10.894Z,5.00
2019-01-27T00:13:10.883Z,4.30
2019-01-27T00:14:10.662Z,4.70
2019-01-27T00:15:10.879Z,4.80
2019-01-27T00:16:10.627Z,4.50
2019-01-27T00:17:10.889Z,4.40
2019-01-27T00:18:10.896Z,4.50
2019-01-27T00:19:10.586Z,4.50
2019-01-27T00:20:10.616Z,4.80
2019-01-27T00:21:10.614Z,4.70
2019-01-27T00:22:10.598Z,4.50
2019-01-27T00:23:10.591Z,4.50
2019-01-27T00:24:10.582Z,5.00
2019-01-27T00:25:10.805Z,5.10
2019-01-27T00:26:10.570Z,4.80
2019-01-27T00:27:10.569Z,5.60
2019-01-27T00:28:10.759Z,5.20
2019-01-27T00:29:10.754Z,5.10
2019-01-27T00:30:10.756Z,5.10
2019-01-27T00:31:10.533Z,5.20
2019-01-27T00:32:10.544Z,5.20
2019-01-27T00:33:10.905Z,5.30
2019-01-27T00:34:10.858Z,5.50
2019-01-27T00:35:10.475Z,6.00
2019-01-27T00:36:10.467Z,5.10
2019-01-27T00:37:10.455Z,5.10
2019-01-27T00:38:10.843Z,5.30
2019-01-27T00:39:10.835Z,5.20
2019-01-27T00:40:10.863Z,4.50
2019-01-27T00:41:10.458Z,5.60
2019-01-27T00:42:10.470Z,5.40
2019-01-27T00:43:10.684Z,5.50
2019-01-27T00:44:11.165Z,4.90
2019-01-27T00:45:10.409Z,5.60
2019-01-27T00:46:10.688Z,5.00
2019-01-27T00:47:10.687Z,5.20
2019-01-27T00:48:10.653Z,4.70
2019-01-27T00:49:10.677Z,5.40
2019-01-27T00:50:10.664Z,4.80
2019-01-27T00:51:10.648Z,5.00
2019-01-27T00:52:10.639Z,4.90
2019-01-27T00:53:10.390Z,4.60
2019-01-27T00:54:10.595Z,4.70
2019-01-27T00:55:10.609Z,5.40
2019-01-27T00:56:10.623Z,4.90
2019-01-27T00:57:10.319Z,5.20
2019-01-27T00:58:10.311Z,5.20
2019-01-27T00:59:10.343Z,5.00
2019-01-27T01:00:10.338Z,5.10
2019-01-27T01:01:10.561Z,4.90
2019-01-27T01:02:10.277Z,5.00
2019-01-27T01:03:10.318Z,4.90
2019-01-27T01:04:10.319Z,5.00
2019-01-27T01:05:10.561Z,4.70
2019-01-27T01:06:10.545Z,4.30
2019-01-27T01:07:10.484Z,4.70
2019-01-27T01:08:10.525Z,4.90
2019-01-27T01:09:10.241Z,4.40
2019-01-27T01:10:10.500Z,4.80
2019-01-27T01:11:10.522Z,4.70
2019-01-27T01:12:10.221Z,4.80
2019-01-27T01:13:10.494Z,4.50
2019-01-27T01:14:10.518Z,4.90
2019-01-27T01:15:10.499Z,4.40
2019-01-27T01:16:10.473Z,4.30
2019-01-27T01:17:10.179Z,4.60
2019-01-27T01:18:10.416Z,4.50
2019-01-27T01:19:10.414Z,4.60
2019-01-27T01:20:10.464Z,4.40
2019-01-27T01:21:10.396Z,4.60
2019-01-27T01:22:10.147Z,4.70
2019-01-27T01:23:10.410Z,4.60
2019-01-27T01:24:10.394Z,5.30
2019-01-27T01:25:10.368Z,5.20
2019-01-27T01:26:10.166Z,5.40
2019-01-27T01:27:10.398Z,6.10
2019-01-27T01:28:10.149Z,6.20
2019-01-27T01:29:10.355Z,5.50
2019-01-27T01:30:10.355Z,5.40
2019-01-27T01:31:10.131Z,6.60
2019-01-27T01:32:10.116Z,6.20
2019-01-27T01:33:10.113Z,5.50
2019-01-27T01:34:10.334Z,6.20
2019-01-27T01:35:10.309Z,6.30
2019-01-27T01:36:10.329Z,6.40
2019-01-27T01:37:10.351Z,6.10
2019-01-27T01:38:10.341Z,5.70
2019-01-27T01:39:10.328Z,6.20
2019-01-27T01:40:10.049Z,6.10
2019-01-27T01:41:10.289Z,6.60
2019-01-27T01:42:10.011Z,6.50
2019-01-27T01:43:10.006Z,6.90
2019-01-27T01:44:10.227Z,7.20
2019-01-27T01:45:09.993Z,6.80
2019-01-27T01:46:10.280Z,7.00
2019-01-27T01:47:10.015Z,6.80
2019-01-27T01:48:10.213Z,6.80
2019-01-27T01:49:10.242Z,7.10
2019-01-27T01:50:09.998Z,7.30
2019-01-27T01:51:10.214Z,6.60
2019-01-27T01:52:09.983Z,7.70
2019-01-27T01:53:10.209Z,6.00
2019-01-27T01:54:09.931Z,6.70
2019-01-27T01:55:10.224Z,6.60
2019-01-27T01:56:10.220Z,6.60
2019-01-27T01:57:10.202Z,6.30
2019-01-27T01:58:10.144Z,6.90
2019-01-27T01:59:09.901Z,6.10
2019-01-27T02:00:10.123Z,6.20
2019-01-27T02:01:10.157Z,6.30
2019-01-27T02:02:09.870Z,6.80
2019-01-27T02:03:10.106Z,7.00
2019-01-27T02:04:10.132Z,6.60
2019-01-27T02:05:09.849Z,7.50
2019-01-27T02:06:09.889Z,7.30
2019-01-27T02:07:09.836Z,7.40
2019-01-27T02:08:09.876Z,6.90
2019-01-27T02:09:09.858Z,6.20
2019-01-27T02:10:09.861Z,6.70
2019-01-27T02:11:09.805Z,8.00
2019-01-27T02:12:10.070Z,6.90
2019-01-27T02:13:09.837Z,7.00
2019-01-27T02:14:09.797Z,7.80
2019-01-27T02:15:10.057Z,8.20
2019-01-27T02:16:10.053Z,7.90
2019-01-27T02:17:09.811Z,7.70
2019-01-27T02:18:10.044Z,8.50
2019-01-27T02:19:10.021Z,10.00
2019-01-27T02:20:10.020Z,8.80
2019-01-27T02:21:09.750Z,8.40
2019-01-27T02:22:10.011Z,8.30
2019-01-27T02:23:10.004Z,9.20
2019-01-27T02:24:09.727Z,9.60
2019-01-27T02:25:09.751Z,9.30
2019-01-27T02:26:09.752Z,9.70
2019-01-27T02:27:09.966Z,9.10
2019-01-27T02:28:09.933Z,9.90
2019-01-27T02:29:09.959Z,10.50
2019-01-27T02:30:09.919Z,9.80
2019-01-27T02:31:09.681Z,9.20
2019-01-27T02:32:09.944Z,9.60
2019-01-27T02:33:09.891Z,9.80
2019-01-27T02:34:09.893Z,9.20
2019-01-27T02:35:09.920Z,10.10
2019-01-27T02:36:09.685Z,10.40
2019-01-27T02:37:09.910Z,10.40
2019-01-27T02:38:09.661Z,10.30
2019-01-27T02:39:09.629Z,9.20
2019-01-27T02:40:09.879Z,9.00
2019-01-27T02:41:09.912Z,8.70
2019-01-27T02:42:09.869Z,8.20
2019-01-27T02:43:09.891Z,8.70
2019-01-27T02:44:09.894Z,8.70
2019-01-27T02:45:09.572Z,8.70
2019-01-27T02:46:09.577Z,7.50
2019-01-27T02:47:09.591Z,8.30
2019-01-27T02:48:09.581Z,7.20
2019-01-27T02:49:09.797Z,7.70
2019-01-27T02:50:09.576Z,7.60
2019-01-27T02:51:09.580Z,7.20
2019-01-27T02:52:09.534Z,6.90
2019-01-27T02:53:09.772Z,7.20
2019-01-27T02:54:09.520Z,7.20
2019-01-27T02:55:09.782Z,7.30
2019-01-27T02:56:09.734Z,6.80
2019-01-27T02:57:09.766Z,6.70
2019-01-27T02:58:09.793Z,6.90
2019-01-27T02:59:09.476Z,7.00
2019-01-27T03:00:09.488Z,6.40
2019-01-27T03:01:09.501Z,6.30
2019-01-27T03:02:09.501Z,7.00
2019-01-27T03:03:09.457Z,7.00
2019-01-27T03:04:09.485Z,6.70
2019-01-27T03:05:09.487Z,6.50
2019-01-27T03:06:09.434Z,6.70
2019-01-27T03:07:09.728Z,6.50
2019-01-27T03:08:09.439Z,7.30
2019-01-27T03:09:09.413Z,6.70
2019-01-27T03:10:09.669Z,7.10
2019-01-27T03:11:09.642Z,6.20
2019-01-27T03:12:09.672Z,6.70
2019-01-27T03:13:09.624Z,6.10
2019-01-27T03:14:09.618Z,7.40
2019-01-27T03:15:09.618Z,6.70
2019-01-27T03:16:09.402Z,7.10
2019-01-27T03:17:09.662Z,6.30
2019-01-27T03:18:09.652Z,6.30
2019-01-27T03:19:09.648Z,7.20
2019-01-27T03:20:09.338Z,6.40
2019-01-27T03:21:09.342Z,6.40
2019-01-27T03:22:09.342Z,6.40
2019-01-27T03:23:09.325Z,6.70
2019-01-27T03:24:09.584Z,6.70
2019-01-27T03:25:09.606Z,6.00
2019-01-27T03:26:09.293Z,6.70
2019-01-27T03:27:09.297Z,6.20
2019-01-27T03:28:09.550Z,6.20
2019-01-27T03:29:09.312Z,6.60
2019-01-27T03:30:09.565Z,7.40
2019-01-27T03:31:09.324Z,6.10
2019-01-27T03:32:09.306Z,6.00
2019-01-27T03:33:09.679Z,7.20
2019-01-27T03:34:09.667Z,6.70
2019-01-27T03:35:09.618Z,6.80
2019-01-27T03:36:09.626Z,6.90
2019-01-27T03:37:09.227Z,6.80
2019-01-27T03:38:09.462Z,7.30
2019-01-27T03:39:09.271Z,7.20
2019-01-27T03:40:09.464Z,6.10
2019-01-27T03:41:09.231Z,6.20
2019-01-27T03:42:09.194Z,7.00
2019-01-27T03:43:09.193Z,6.50
2019-01-27T03:44:09.438Z,6.30
2019-01-27T03:45:09.200Z,6.40
2019-01-27T03:46:09.427Z,6.00
2019-01-27T03:47:09.160Z,6.60
2019-01-27T03:48:09.196Z,6.10
2019-01-27T03:49:09.146Z,6.20
2019-01-27T03:50:09.399Z,6.70
2019-01-27T03:51:09.138Z,6.10
2019-01-27T03:52:09.388Z,6.40
2019-01-27T03:53:09.375Z,7.00
2019-01-27T03:54:09.138Z,6.00
2019-01-27T03:55:09.405Z,6.10
2019-01-27T03:56:09.093Z,6.10
2019-01-27T03:57:09.357Z,6.60
2019-01-27T03:58:09.103Z,6.30
2019-01-27T03:59:09.114Z,6.60
2019-01-27T04:00:09.497Z,6.30
2019-01-27T04:01:09.448Z,6.50
2019-01-27T04:02:09.414Z,6.30
2019-01-27T04:03:09.040Z,6.10
2019-01-27T04:04:09.037Z,5.20
2019-01-27T04:05:09.074Z,6.10
2019-01-27T04:06:09.413Z,5.40
2019-01-27T04:07:09.016Z,5.90
2019-01-27T04:08:09.299Z,5.70
2019-01-27T04:09:09.012Z,6.00
2019-01-27T04:10:08.995Z,5.80
2019-01-27T04:11:08.993Z,6.20
2019-01-27T04:12:09.261Z,5.70
2019-01-27T04:13:08.992Z,6.10
2019-01-27T04:14:08.999Z,5.80
2019-01-27T04:15:09.245Z,5.60
2019-01-27T04:16:09.264Z,6.00
2019-01-27T04:17:09.213Z,5.80
2019-01-27T04:18:08.986Z,6.10
2019-01-27T04:19:08.944Z,5.90
2019-01-27T04:20:09.165Z,5.60
2019-01-27T04:21:08.917Z,5.40
2019-01-27T04:22:08.917Z,5.50
2019-01-27T04:23:09.213Z,5.30
2019-01-27T04:24:09.205Z,5.30
2019-01-27T04:25:09.139Z,5.80
2019-01-27T04:26:09.157Z,6.20
2019-01-27T04:27:09.164Z,5.70
2019-01-27T04:28:08.871Z,5.20
2019-01-27T04:29:09.145Z,5.70
2019-01-27T04:30:08.866Z,5.80
2019-01-27T04:31:08.847Z,5.30
2019-01-27T04:32:09.104Z,5.60
2019-01-27T04:33:08.885Z,5.40
2019-01-27T04:34:09.106Z,5.10
2019-01-27T04:35:09.122Z,5.50
2019-01-27T04:36:08.864Z,4.80
2019-01-27T04:37:09.085Z,6.10
2019-01-27T04:38:09.109Z,6.10
2019-01-27T04:39:08.847Z,6.00
2019-01-27T04:40:09.209Z,5.70
2019-01-27T04:41:09.152Z,5.90
2019-01-27T04:42:09.161Z,5.40
2019-01-27T04:43:08.800Z,5.50
2019-01-27T04:44:08.801Z,4.60
2019-01-27T04:45:09.148Z,5.50
2019-01-27T04:46:09.062Z,5.40
2019-01-27T04:47:09.043Z,5.60
2019-01-27T04:48:08.788Z,5.20
2019-01-27T04:49:08.968Z,5.60
2019-01-27T04:50:09.017Z,5.30
2019-01-27T04:51:08.986Z,5.80
2019-01-27T04:52:08.977Z,5.80
2019-01-27T04:53:09.092Z,6.00
2019-01-27T04:54:09.107Z,5.70
2019-01-27T04:55:09.071Z,6.50
2019-01-27T04:56:08.691Z,6.10
2019-01-27T04:57:08.669Z,5.90
2019-01-27T04:58:09.044Z,5.50
2019-01-27T04:59:09.074Z,5.60
2019-01-27T05:00:08.662Z,6.30
2019-01-27T05:01:08.926Z,6.00
2019-01-27T05:02:08.927Z,5.50
2019-01-27T05:03:08.883Z,5.00
2019-01-27T05:04:08.670Z,5.40
2019-01-27T05:05:08.893Z,5.60
2019-01-27T05:06:08.664Z,5.50
2019-01-27T05:07:08.614Z,4.80
2019-01-27T05:08:08.644Z,5.90
2019-01-27T05:09:08.589Z,5.60
2019-01-27T05:10:08.628Z,5.70
2019-01-27T05:11:08.844Z,5.50
2019-01-27T05:12:08.575Z,5.10
2019-01-27T05:13:08.573Z,5.40
2019-01-27T05:14:08.607Z,5.40
2019-01-27T05:15:08.823Z,5.60
2019-01-27T05:16:08.819Z,5.50
2019-01-27T05:17:08.572Z,5.50
2019-01-27T05:18:08.785Z,5.40
2019-01-27T05:19:08.792Z,5.00
2019-01-27T05:20:08.523Z,5.30
2019-01-27T05:21:08.817Z,5.20
2019-01-27T05:22:08.771Z,5.70
2019-01-27T05:23:08.738Z,5.70
2019-01-27T05:24:08.755Z,5.50
2019-01-27T05:25:08.864Z,5.60
2019-01-27T05:26:08.898Z,5.50
2019-01-27T05:27:08.853Z,5.60
2019-01-27T05:28:08.477Z,5.20
2019-01-27T05:29:08.881Z,5.40
2019-01-27T05:30:08.493Z,5.00
2019-01-27T05:31:08.818Z,5.50
2019-01-27T05:32:08.484Z,5.70
2019-01-27T05:33:08.703Z,5.60
2019-01-27T05:34:08.660Z,5.10
2019-01-27T05:35:08.690Z,5.00
2019-01-27T05:36:08.448Z,5.10
2019-01-27T05:37:08.825Z,5.00
2019-01-27T05:38:08.433Z,5.30
2019-01-27T05:39:08.434Z,5.80
2019-01-27T05:40:08.379Z,5.60
2019-01-27T05:41:08.409Z,5.00
2019-01-27T05:42:08.747Z,5.00
2019-01-27T05:43:08.372Z,5.60
2019-01-27T05:44:08.597Z,5.60
2019-01-27T05:45:08.621Z,5.10
2019-01-27T05:46:08.382Z,5.50
2019-01-27T05:47:08.644Z,5.20
2019-01-27T05:48:08.333Z,5.50
2019-01-27T05:49:08.606Z,5.50
2019-01-27T05:50:08.581Z,5.30
2019-01-27T05:51:08.311Z,5.30
2019-01-27T05:52:08.545Z,5.50
2019-01-27T05:53:08.557Z,5.40
2019-01-27T05:54:08.536Z,4.90
2019-01-27T05:55:08.306Z,5.60
2019-01-27T05:56:08.274Z,4.90
2019-01-27T05:57:08.559Z,5.30
2019-01-27T05:58:08.552Z,5.30
2019-01-27T05:59:08.511Z,5.80
2019-01-27T06:00:08.513Z,4.90
2019-01-27T06:01:08.238Z,5.20
2019-01-27T06:02:08.498Z,5.00
2019-01-27T06:03:08.218Z,4.60
2019-01-27T06:04:08.256Z,5.70
2019-01-27T06:05:08.504Z,5.50
2019-01-27T06:06:08.300Z,5.50
2019-01-27T06:07:08.467Z,6.00
2019-01-27T06:08:08.239Z,5.20
2019-01-27T06:09:08.484Z,6.20
2019-01-27T06:10:08.442Z,5.50
2019-01-27T06:11:08.420Z,4.80
2019-01-27T06:12:08.397Z,5.20
2019-01-27T06:13:08.203Z,6.00
2019-01-27T06:14:08.155Z,5.50
2019-01-27T06:15:08.187Z,5.40
2019-01-27T06:16:08.382Z,5.80
2019-01-27T06:17:08.385Z,6.20
2019-01-27T06:18:08.158Z,6.40
2019-01-27T06:19:08.350Z,5.30
2019-01-27T06:20:08.347Z,5.80
2019-01-27T06:21:08.400Z,5.60
2019-01-27T06:22:08.141Z,5.40
2019-01-27T06:23:08.103Z,5.50
2019-01-27T06:24:08.116Z,5.70
2019-01-27T06:25:08.336Z,5.30
2019-01-27T06:26:08.433Z,5.20
2019-01-27T06:27:08.471Z,5.80
2019-01-27T06:28:08.068Z,5.20
2019-01-27T06:29:08.062Z,4.80
2019-01-27T06:30:08.056Z,5.40
2019-01-27T06:31:08.445Z,5.40
2019-01-27T06:32:08.381Z,5.30
2019-01-27T06:33:08.028Z,5.10
2019-01-27T06:34:08.392Z,5.20
2019-01-27T06:35:08.246Z,5.20
2019-01-27T06:36:08.262Z,5.70
2019-01-27T06:37:07.996Z,5.10
2019-01-27T06:38:08.253Z,5.00
2019-01-27T06:39:07.989Z,4.70
2019-01-27T06:40:08.006Z,4.90
2019-01-27T06:41:08.225Z,5.30
2019-01-27T06:42:07.955Z,5.10
2019-01-27T06:43:08.248Z,5.30
2019-01-27T06:44:08.189Z,4.70
2019-01-27T06:45:08.177Z,5.40
2019-01-27T06:46:08.219Z,4.90
2019-01-27T06:47:07.955Z,5.10
2019-01-27T06:48:08.178Z,5.40
2019-01-27T06:49:07.910Z,5.50
2019-01-27T06:50:08.143Z,5.60
2019-01-27T06:51:07.933Z,5.30
2019-01-27T06:52:07.902Z,5.40
2019-01-27T06:53:08.178Z,4.90
2019-01-27T06:54:08.142Z,5.30
2019-01-27T06:55:07.869Z,4.90
2019-01-27T06:56:08.166Z,5.40
2019-01-27T06:57:07.844Z,4.70
2019-01-27T06:58:08.087Z,4.70
2019-01-27T06:59:08.076Z,4.70
2019-01-27T07:00:08.127Z,5.30
2019-01-27T07:01:07.851Z,5.30
2019-01-27T07:02:08.055Z,5.10
2019-01-27T07:03:08.046Z,4.50
2019-01-27T07:04:07.851Z,4.50
2019-01-27T07:05:08.072Z,4.60
2019-01-27T07:06:08.028Z,5.70
2019-01-27T07:07:07.815Z,4.80
2019-01-27T07:08:08.041Z,5.00
2019-01-27T07:09:07.775Z,4.90
2019-01-27T07:10:07.774Z,4.80
2019-01-27T07:11:07.766Z,5.00
2019-01-27T07:12:07.784Z,4.90
2019-01-27T07:13:07.795Z,5.10
2019-01-27T07:14:07.977Z,4.80
2019-01-27T07:15:07.985Z,4.80
2019-01-27T07:16:08.086Z,5.60
2019-01-27T07:17:08.105Z,4.50
2019-01-27T07:18:08.090Z,4.80
2019-01-27T07:19:08.091Z,4.80
2019-01-27T07:20:07.698Z,4.90
2019-01-27T07:21:07.731Z,5.40
2019-01-27T07:22:07.726Z,5.00
2019-01-27T07:23:08.051Z,4.90
2019-01-27T07:24:07.705Z,5.10
2019-01-27T07:25:07.668Z,4.80
2019-01-27T07:26:07.940Z,4.90
2019-01-27T07:27:07.686Z,4.70
2019-01-27T07:28:07.894Z,4.70
2019-01-27T07:29:07.919Z,4.70
2019-01-27T07:30:07.637Z,4.90
2019-01-27T07:31:07.859Z,6.10
2019-01-27T07:32:07.654Z,5.50
2019-01-27T07:33:07.862Z,4.90
2019-01-27T07:34:07.883Z,4.70
2019-01-27T07:35:07.842Z,5.20
2019-01-27T07:36:07.837Z,4.80
2019-01-27T07:37:07.869Z,5.00
2019-01-27T07:38:07.562Z,4.70
2019-01-27T07:39:07.607Z,4.90
2019-01-27T07:40:07.556Z,5.20
2019-01-27T07:41:07.799Z,5.10
2019-01-27T07:42:07.803Z,5.20
2019-01-27T07:43:07.574Z,5.10
2019-01-27T07:44:07.530Z,4.90
2019-01-27T07:45:07.819Z,4.90
2019-01-27T07:46:07.557Z,5.50
2019-01-27T07:47:07.547Z,4.10
2019-01-27T07:48:07.777Z,4.80
2019-01-27T07:49:07.773Z,5.40
2019-01-27T07:50:07.744Z,5.00
2019-01-27T07:51:07.520Z,5.40
2019-01-27T07:52:07.776Z,5.10
2019-01-27T07:53:07.743Z,4.80
2019-01-27T07:54:07.704Z,5.40
2019-01-27T07:55:07.451Z,4.90
2019-01-27T07:56:07.444Z,5.00
2019-01-27T07:57:07.723Z,4.90
2019-01-27T07:58:07.674Z,5.40
2019-01-27T07:59:07.708Z,5.30
2019-01-27T08:00:07.428Z,4.60
2019-01-27T08:01:07.672Z,4.90
2019-01-27T08:02:07.682Z,4.80
2019-01-27T08:03:11.955Z,5.40
2019-01-27T08:04:07.673Z,5.30
2019-01-27T08:05:07.652Z,5.10
2019-01-27T08:06:07.622Z,4.90
2019-01-27T08:07:07.616Z,5.40
2019-01-27T08:08:07.621Z,5.60
2019-01-27T08:09:07.623Z,5.30
2019-01-27T08:10:07.352Z,5.20
2019-01-27T08:11:07.376Z,5.50
2019-01-27T08:12:07.646Z,4.50
2019-01-27T08:13:07.582Z,5.00
2019-01-27T08:14:07.631Z,5.00
2019-01-27T08:15:07.590Z,5.00
2019-01-27T08:16:07.581Z,5.30
2019-01-27T08:17:07.556Z,5.40
2019-01-27T08:18:07.334Z,4.80
2019-01-27T08:19:07.528Z,4.90
2019-01-27T08:20:07.578Z,5.30
2019-01-27T08:21:07.566Z,4.80
2019-01-27T08:22:07.277Z,4.50
2019-01-27T08:23:07.305Z,6.00
2019-01-27T08:24:07.523Z,5.60
2019-01-27T08:25:07.549Z,5.20
2019-01-27T08:26:07.240Z,5.80
2019-01-27T08:27:07.228Z,5.50
2019-01-27T08:28:07.260Z,5.10
2019-01-27T08:29:07.471Z,5.80
2019-01-27T08:30:07.588Z,4.40
2019-01-27T08:31:07.595Z,5.30
2019-01-27T08:32:07.552Z,6.00
2019-01-27T08:33:07.191Z,5.40
2019-01-27T08:34:07.596Z,5.30
2019-01-27T08:35:07.593Z,5.10
2019-01-27T08:36:07.526Z,5.50
2019-01-27T08:37:07.207Z,5.40
2019-01-27T08:38:07.576Z,5.30
2019-01-27T08:39:07.148Z,6.10
2019-01-27T08:40:07.408Z,5.40
2019-01-27T08:41:07.132Z,4.80
2019-01-27T08:42:07.132Z,5.50
2019-01-27T08:43:07.164Z,4.80
2019-01-27T08:44:07.387Z,5.00
2019-01-27T08:45:07.112Z,5.00
2019-01-27T08:46:07.102Z,5.00
2019-01-27T08:47:07.371Z,5.90
2019-01-27T08:48:07.365Z,6.60
2019-01-27T08:49:07.375Z,6.80
2019-01-27T08:50:07.087Z,6.00
2019-01-27T08:51:07.348Z,6.80
2019-01-27T08:52:07.066Z,7.00
2019-01-27T08:53:07.354Z,5.70
2019-01-27T08:54:07.087Z,6.70
2019-01-27T08:55:07.033Z,6.80
2019-01-27T08:56:07.042Z,7.10
2019-01-27T08:57:07.057Z,7.00
2019-01-27T08:58:07.020Z,6.90
2019-01-27T08:59:07.009Z,6.90
2019-01-27T09:00:07.271Z,7.20
2019-01-27T09:01:07.290Z,7.00
2019-01-27T09:02:07.239Z,8.00
2019-01-27T09:03:07.018Z,6.70
2019-01-27T09:04:07.277Z,6.40
2019-01-27T09:05:07.005Z,6.80
2019-01-27T09:06:07.005Z,7.20
2019-01-27T09:07:07.218Z,7.60
2019-01-27T09:08:07.217Z,7.60
2019-01-27T09:09:06.979Z,7.00
2019-01-27T09:10:07.178Z,5.60
2019-01-27T09:11:06.926Z,5.10
2019-01-27T09:12:07.195Z,4.30
2019-01-27T09:13:11.175Z,4.70
2019-01-27T09:14:06.906Z,5.30
2019-01-27T09:15:07.138Z,5.00
2019-01-27T09:16:06.903Z,4.90
2019-01-27T09:17:06.890Z,5.20
2019-01-27T09:18:06.891Z,4.80
2019-01-27T09:19:07.147Z,4.80
2019-01-27T09:20:06.879Z,5.00
2019-01-27T09:21:07.144Z,5.10
2019-01-27T09:22:07.160Z,5.20
2019-01-27T09:23:07.142Z,5.90
2019-01-27T09:24:06.845Z,5.90
2019-01-27T09:25:06.836Z,6.50
2019-01-27T09:26:07.072Z,5.90
2019-01-27T09:27:07.092Z,6.00
2019-01-27T09:28:07.114Z,5.70
2019-01-27T09:29:07.047Z,5.90
2019-01-27T09:30:07.035Z,6.00
2019-01-27T09:31:06.793Z,5.50
2019-01-27T09:32:06.784Z,5.60
2019-01-27T09:33:06.827Z,5.80
2019-01-27T09:34:12.974Z,5.50
2019-01-27T09:35:07.042Z,5.90
2019-01-27T09:36:07.035Z,4.80
2019-01-27T09:37:06.748Z,5.10
2019-01-27T09:38:07.053Z,5.80
2019-01-27T09:39:06.994Z,4.80
2019-01-27T09:40:06.775Z,5.40
2019-01-27T09:41:06.757Z,5.40
2019-01-27T09:42:06.729Z,5.40
2019-01-27T09:43:06.954Z,6.10
2019-01-27T09:44:06.961Z,5.10
2019-01-27T09:45:06.960Z,5.70
2019-01-27T09:46:11.228Z,5.60
2019-01-27T09:47:07.105Z,6.10
2019-01-27T09:48:06.717Z,7.50
2019-01-27T09:49:07.061Z,8.50
2019-01-27T09:50:07.064Z,9.50
2019-01-27T09:51:07.031Z,10.00
2019-01-27T09:52:07.031Z,11.90
2019-01-27T09:53:06.681Z,13.10
2019-01-27T09:54:06.677Z,12.80
2019-01-27T09:55:06.863Z,13.80
2019-01-27T09:56:06.914Z,12.80
2019-01-27T09:57:06.918Z,13.50
2019-01-27T09:58:06.618Z,14.50
2019-01-27T09:59:06.639Z,12.60
2019-01-27T10:00:06.603Z,15.10
2019-01-27T10:01:06.587Z,15.90
2019-01-27T10:02:06.826Z,14.70
2019-01-27T10:03:06.605Z,14.10
2019-01-27T10:04:06.566Z,15.70
2019-01-27T10:05:06.833Z,13.30
2019-01-27T10:06:06.584Z,14.30
2019-01-27T10:07:06.813Z,16.50
2019-01-27T10:08:06.536Z,16.10
2019-01-27T10:09:06.770Z,14.50
2019-01-27T10:10:06.909Z,18.50
2019-01-27T10:11:06.518Z,16.40
2019-01-27T10:12:06.880Z,16.70
2019-01-27T10:13:06.557Z,15.90
2019-01-27T10:14:06.505Z,16.80
2019-01-27T10:15:06.864Z,18.40
2019-01-27T10:16:06.519Z,17.80
2019-01-27T10:17:06.870Z,18.50
2019-01-27T10:18:06.471Z,19.90
2019-01-27T10:19:06.762Z,20.30
2019-01-27T10:20:06.719Z,21.40
2019-01-27T10:21:06.713Z,22.70
2019-01-27T10:22:06.738Z,25.00
2019-01-27T10:23:06.693Z,24.70
2019-01-27T10:24:06.696Z,26.20
2019-01-27T10:25:06.714Z,28.40
2019-01-27T10:26:06.409Z,24.60
2019-01-27T10:27:06.651Z,28.60
2019-01-27T10:28:06.659Z,30.20
2019-01-27T10:29:06.669Z,31.90
2019-01-27T10:30:06.376Z,35.30
2019-01-27T10:31:06.373Z,32.70
2019-01-27T10:32:06.642Z,31.80
2019-01-27T10:33:06.411Z,33.40
2019-01-27T10:34:06.613Z,33.60
2019-01-27T10:35:06.357Z,33.40
2019-01-27T10:36:06.395Z,34.40
2019-01-27T10:37:12.066Z,33.60
2019-01-27T10:38:06.326Z,33.50
2019-01-27T10:39:06.587Z,39.90
2019-01-27T10:40:09.299Z,33.80
2019-01-27T10:41:06.545Z,36.80
2019-01-27T10:42:06.566Z,40.00
2019-01-27T10:43:06.592Z,35.10
2019-01-27T10:44:06.316Z,35.70
2019-01-27T10:45:06.579Z,35.20
2019-01-27T10:46:06.527Z,40.00
2019-01-27T10:47:06.542Z,45.60
2019-01-27T10:48:06.490Z,40.50
2019-01-27T10:49:06.280Z,40.20
2019-01-27T10:50:06.250Z,44.40
2019-01-27T10:51:06.230Z,41.70
2019-01-27T10:52:06.222Z,42.70
2019-01-27T10:53:06.523Z,37.40
2019-01-27T10:54:06.514Z,39.50
2019-01-27T10:55:06.468Z,40.20
2019-01-27T10:56:06.503Z,37.80
2019-01-27T10:57:06.195Z,37.70
2019-01-27T10:58:06.203Z,36.10
2019-01-27T10:59:06.465Z,36.70
2019-01-27T11:00:06.468Z,35.00
2019-01-27T11:01:06.475Z,34.60
2019-01-27T11:02:06.399Z,35.60
2019-01-27T11:03:06.455Z,34.30
2019-01-27T11:04:06.413Z,35.30
2019-01-27T11:05:06.178Z,32.80
2019-01-27T11:06:06.148Z,32.40
2019-01-27T11:07:06.361Z,30.90
2019-01-27T11:08:06.475Z,31.40
2019-01-27T11:09:06.392Z,30.50
2019-01-27T11:10:06.399Z,28.80
2019-01-27T11:11:06.355Z,31.00
2019-01-27T11:12:06.368Z,29.70
2019-01-27T11:13:06.362Z,30.10
2019-01-27T11:14:06.346Z,31.50
2019-01-27T11:15:06.340Z,30.70
2019-01-27T11:16:06.094Z,30.00
2019-01-27T11:17:06.064Z,29.10
2019-01-27T11:18:06.315Z,29.70
2019-01-27T11:19:06.038Z,30.30
2019-01-27T11:20:06.298Z,28.50
2019-01-27T11:21:06.066Z,28.60
2019-01-27T11:22:06.359Z,27.40
2019-01-27T11:23:06.280Z,30.60
2019-01-27T11:24:06.284Z,27.80
2019-01-27T11:25:06.016Z,28.30
2019-01-27T11:26:05.989Z,26.60
2019-01-27T11:27:05.990Z,25.70
2019-01-27T11:28:06.281Z,26.90
2019-01-27T11:29:05.980Z,27.80
2019-01-27T11:30:06.264Z,26.40
2019-01-27T11:31:06.234Z,26.60
2019-01-27T11:32:05.990Z,26.60
2019-01-27T11:33:05.952Z,26.30
2019-01-27T11:34:06.214Z,28.20
2019-01-27T11:35:06.226Z,27.00
2019-01-27T11:36:05.924Z,25.30
2019-01-27T11:37:05.968Z,25.50
2019-01-27T11:38:06.206Z,26.20
2019-01-27T11:39:05.914Z,24.60
2019-01-27T11:40:06.169Z,24.00
2019-01-27T11:41:05.905Z,25.70
2019-01-27T11:42:06.126Z,26.40
2019-01-27T11:43:06.156Z,24.90
2019-01-27T11:44:05.869Z,25.30
2019-01-27T11:45:05.877Z,25.30
2019-01-27T11:46:05.856Z,25.60
2019-01-27T11:47:05.893Z,25.30
2019-01-27T11:48:05.896Z,24.30
2019-01-27T11:49:06.107Z,24.60
2019-01-27T11:50:06.068Z,25.60
2019-01-27T11:51:06.081Z,26.50
2019-01-27T11:52:06.078Z,27.20
2019-01-27T11:53:05.850Z,26.30
2019-01-27T11:54:05.845Z,26.70
2019-01-27T11:55:05.832Z,25.70
2019-01-27T11:56:06.225Z,27.50
2019-01-27T11:57:06.201Z,27.30
2019-01-27T11:58:05.778Z,26.30
2019-01-27T11:59:05.809Z,28.00
2019-01-27T12:00:05.808Z,26.30
2019-01-27T12:01:06.166Z,24.30
2019-01-27T12:02:05.745Z,27.00
2019-01-27T12:03:05.780Z,25.50
2019-01-27T12:04:06.047Z,24.60
2019-01-27T12:05:05.732Z,24.90
2019-01-27T12:06:05.966Z,25.70
2019-01-27T12:07:05.726Z,24.70
2019-01-27T12:08:05.978Z,26.20
2019-01-27T12:09:05.957Z,26.60
2019-01-27T12:10:05.958Z,26.90
2019-01-27T12:11:05.693Z,25.30
2019-01-27T12:12:05.964Z,25.60
2019-01-27T12:13:05.705Z,25.30
2019-01-27T12:14:05.705Z,25.30
2019-01-27T12:15:05.925Z,25.70
2019-01-27T12:16:05.650Z,23.50
2019-01-27T12:17:05.917Z,26.70
2019-01-27T12:18:05.634Z,25.50
2019-01-27T12:19:05.865Z,25.90
2019-01-27T12:20:05.655Z,26.30
2019-01-27T12:21:05.874Z,25.70
2019-01-27T12:22:05.648Z,25.40
2019-01-27T12:23:05.869Z,26.50
2019-01-27T12:24:05.894Z,26.50
2019-01-27T12:25:05.842Z,26.50
2019-01-27T12:26:05.863Z,27.70
2019-01-27T12:27:06.553Z,26.70
2019-01-27T12:28:05.580Z,27.90
2019-01-27T12:29:05.576Z,26.60
2019-01-27T12:30:05.828Z,27.10
2019-01-27T12:31:05.797Z,28.50
2019-01-27T12:32:05.558Z,29.30
2019-01-27T12:33:05.846Z,30.00
2019-01-27T12:34:05.535Z,28.00
2019-01-27T12:35:05.556Z,30.80
2019-01-27T12:36:05.775Z,30.40
2019-01-27T12:37:05.515Z,26.30
2019-01-27T12:38:05.498Z,28.50
2019-01-27T12:39:05.758Z,31.20
2019-01-27T12:40:05.503Z,29.00
2019-01-27T12:41:05.480Z,27.40
2019-01-27T12:42:05.476Z,30.20
2019-01-27T12:43:05.479Z,30.70
2019-01-27T12:44:05.466Z,31.50
2019-01-27T12:45:05.485Z,28.80
2019-01-27T12:46:05.440Z,29.70
2019-01-27T12:47:05.466Z,30.00
2019-01-27T12:48:05.433Z,30.90
2019-01-27T12:49:05.423Z,28.80
2019-01-27T12:50:05.460Z,28.00
2019-01-27T12:51:05.429Z,30.10
2019-01-27T12:52:05.414Z,31.10
2019-01-27T12:53:05.410Z,29.50
2019-01-27T12:54:05.440Z,29.10
2019-01-27T12:55:05.630Z,29.50
2019-01-27T12:56:05.380Z,29.30
2019-01-27T12:57:05.384Z,28.80
2019-01-27T12:58:05.598Z,29.80
2019-01-27T12:59:05.593Z,30.10
2019-01-27T13:00:05.387Z,29.00
2019-01-27T13:01:05.592Z,29.30
2019-01-27T13:02:05.609Z,29.00
2019-01-27T13:03:05.374Z,30.80
2019-01-27T13:04:05.569Z,27.60
2019-01-27T13:05:05.363Z,28.00
2019-01-27T13:06:05.343Z,31.70
2019-01-27T13:07:05.589Z,30.40
2019-01-27T13:08:05.297Z,30.10
2019-01-27T13:09:05.327Z,30.30
2019-01-27T13:10:05.284Z,29.20
2019-01-27T13:11:06.167Z,30.20